createdAt,value
2018-12-04T00:01:58.776Z,138.07
2018-12-04T00:04:27.639Z,139.32
2018-12-04T00:06:55.515Z,137.55
2018-12-04T00:09:23.436Z,138.22
2018-12-04T00:11:52.129Z,141.47
2018-12-04T00:14:19.989Z,148.05
2018-12-04T00:16:47.867Z,134.40
2018-12-04T00:19:15.795Z,138.18
2018-12-04T00:21:44.334Z,130.05
2018-12-04T00:24:12.585Z,138.88
2018-12-04T00:26:40.491Z,136.40
2018-12-04T00:29:09.136Z,133.40
2018-12-04T00:31:37.047Z,133.57
2018-12-04T00:34:04.941Z,131.93
2018-12-04T00:36:32.791Z,125.67
2018-12-04T00:39:01.738Z,129.85
2018-12-04T00:41:29.969Z,125.40
2018-12-04T00:43:57.816Z,125.25
2018-12-04T00:46:26.081Z,122.50
2018-12-04T00:48:54.048Z,122.92
2018-12-04T00:51:21.975Z,124.82
2018-12-04T00:53:49.856Z,122.67
2018-12-04T00:56:17.758Z,120.82
2018-12-04T00:58:46.917Z,122.72
2018-12-04T01:01:14.801Z,129.45
2018-12-04T01:03:43.094Z,122.85
2018-12-04T01:06:12.984Z,120.62
2018-12-04T01:08:41.174Z,125.05
2018-12-04T01:11:09.047Z,124.60
2018-12-04T01:13:37.483Z,122.53
2018-12-04T01:16:05.610Z,119.82
2018-12-04T01:18:33.500Z,116.57
2018-12-04T01:21:01.854Z,115.47
2018-12-04T01:23:29.712Z,112.40
2018-12-04T01:25:57.579Z,107.70
2018-12-04T01:28:26.591Z,103.32
2018-12-04T01:30:54.843Z,105.05
2018-12-04T01:33:22.700Z,104.20
2018-12-04T01:35:50.595Z,107.37
2018-12-04T01:38:19.287Z,100.05
2018-12-04T01:40:47.185Z,98.20
2018-12-04T01:43:15.035Z,102.50
2018-12-04T01:45:44.074Z,100.53
2018-12-04T01:48:11.953Z,100.53
2018-12-04T01:50:40.686Z,102.85
2018-12-04T01:53:08.551Z,104.07
2018-12-04T01:55:36.431Z,107.75
2018-12-04T01:58:04.299Z,103.02
2018-12-04T02:00:32.759Z,103.72
2018-12-04T02:03:00.600Z,105.75
2018-12-04T02:05:29.098Z,105.07
2018-12-04T02:07:57.542Z,105.67
2018-12-04T02:10:25.470Z,100.45
2018-12-04T02:12:53.316Z,105.32
2018-12-04T02:15:21.344Z,104.32
2018-12-04T02:17:50.266Z,104.67
2018-12-04T02:20:18.886Z,101.82
2018-12-04T02:22:46.856Z,109.55
2018-12-04T02:25:14.739Z,107.83
2018-12-04T02:27:42.594Z,105.35
2018-12-04T02:30:10.735Z,109.30
2018-12-04T02:32:38.576Z,107.50
2018-12-04T02:35:06.562Z,107.65
2018-12-04T02:37:35.086Z,104.32
2018-12-04T02:40:03.619Z,104.15
2018-12-04T02:42:32.903Z,105.85
2018-12-04T02:45:00.764Z,103.30
2018-12-04T02:47:28.920Z,101.12
2018-12-04T02:50:02.954Z,101.75
2018-12-04T02:52:31.195Z,97.33
2018-12-04T02:54:59.273Z,95.07
2018-12-04T02:57:27.215Z,97.67
2018-12-04T02:59:55.129Z,95.62
2018-12-04T03:02:24.293Z,98.70
2018-12-04T03:04:52.608Z,94.17
2018-12-04T03:07:20.538Z,95.22
2018-12-04T03:09:48.759Z,88.47
2018-12-04T03:12:16.684Z,93.70
2018-12-04T03:14:44.891Z,94.22
2018-12-04T03:17:12.759Z,89.65
2018-12-04T03:19:41.062Z,89.00
2018-12-04T03:22:08.948Z,88.95
2018-12-04T03:24:37.981Z,87.37
2018-12-04T03:27:05.881Z,83.40
2018-12-04T03:29:34.155Z,89.47
2018-12-04T03:32:02.060Z,88.03
2018-12-04T03:34:30.282Z,94.10
2018-12-04T03:36:58.452Z,86.53
2018-12-04T03:39:27.711Z,85.57
2018-12-04T03:41:55.579Z,84.52
2018-12-04T03:44:24.099Z,85.28
2018-12-04T03:46:52.077Z,87.72
2018-12-04T03:49:19.941Z,87.50
2018-12-04T03:51:47.864Z,82.55
2018-12-04T03:54:15.943Z,86.80
2018-12-04T03:56:43.943Z,83.12
2018-12-04T03:59:13.042Z,84.90
2018-12-04T04:01:40.959Z,89.60
2018-12-04T04:04:08.849Z,86.85
2018-12-04T04:06:38.300Z,83.10
2018-12-04T04:09:07.796Z,84.28
2018-12-04T04:11:35.786Z,86.50
2018-12-04T04:14:03.658Z,90.67
2018-12-04T04:16:31.530Z,90.35
2018-12-04T04:18:59.635Z,88.35
2018-12-04T04:21:27.569Z,87.37
2018-12-04T04:23:55.419Z,90.87
2018-12-04T04:26:23.672Z,90.87
2018-12-04T04:28:52.560Z,89.13
2018-12-04T04:31:20.443Z,82.97
2018-12-04T04:33:48.366Z,89.17
2018-12-04T04:36:20.843Z,85.87
2018-12-04T04:38:50.726Z,97.57
2018-12-04T04:41:18.600Z,87.02
2018-12-04T04:43:46.904Z,87.95
2018-12-04T04:46:14.804Z,88.50
2018-12-04T04:48:45.966Z,86.87
2018-12-04T04:51:13.936Z,93.62
2018-12-04T04:53:41.874Z,90.57
2018-12-04T04:56:09.800Z,88.67
2018-12-04T04:58:37.661Z,84.55
2018-12-04T05:01:05.676Z,89.25
2018-12-04T05:03:34.092Z,84.87
2018-12-04T05:06:02.241Z,93.47
2018-12-04T05:08:33.372Z,87.80
2018-12-04T05:11:02.206Z,88.60
2018-12-04T05:13:30.338Z,89.35
2018-12-04T05:15:58.217Z,86.82
2018-12-04T05:18:28.104Z,86.17
2018-12-04T05:20:56.410Z,88.15
2018-12-04T05:23:24.279Z,88.85
2018-12-04T05:25:53.153Z,86.57
2018-12-04T05:28:21.868Z,86.50
2018-12-04T05:30:49.759Z,80.20
2018-12-04T05:33:17.784Z,83.00
2018-12-04T05:35:45.721Z,84.52
2018-12-04T05:38:13.901Z,85.85
2018-12-04T05:40:41.779Z,90.00
2018-12-04T05:43:09.640Z,88.45
2018-12-04T05:45:37.941Z,87.33
2018-12-04T05:48:06.227Z,88.10
2018-12-04T05:50:34.127Z,83.33
2018-12-04T05:53:13.184Z,84.40
2018-12-04T05:55:41.672Z,84.47
2018-12-04T05:58:09.579Z,85.30
2018-12-04T06:00:37.500Z,82.45
2018-12-04T06:03:05.707Z,85.45
2018-12-04T06:05:33.968Z,88.85
2018-12-04T06:08:01.860Z,91.40
2018-12-04T06:10:30.112Z,81.85
2018-12-04T06:12:57.980Z,87.45
2018-12-04T06:15:26.325Z,85.07
2018-12-04T06:17:54.935Z,86.63
2018-12-04T06:20:24.195Z,82.37
2018-12-04T06:22:52.083Z,85.30
2018-12-04T06:25:19.985Z,86.70
2018-12-04T06:27:47.853Z,82.02
2018-12-04T06:30:16.307Z,84.92
2018-12-04T06:32:44.579Z,89.42
2018-12-04T06:35:12.892Z,84.03
2018-12-04T06:37:41.135Z,86.20
2018-12-04T06:40:09.071Z,84.25
2018-12-04T06:42:38.103Z,87.97
2018-12-04T06:45:06.049Z,95.65
2018-12-04T06:47:34.504Z,89.77
2018-12-04T06:50:03.305Z,92.78
2018-12-04T06:52:31.206Z,88.75
2018-12-04T06:54:59.104Z,87.78
2018-12-04T06:57:27.402Z,88.92
2018-12-04T06:59:55.253Z,94.47
2018-12-04T07:02:23.138Z,91.70
2018-12-04T07:04:51.040Z,87.95
2018-12-04T07:07:19.382Z,89.70
2018-12-04T07:09:47.515Z,89.28
2018-12-04T07:12:15.801Z,89.13
2018-12-04T07:14:43.705Z,93.78
2018-12-04T07:17:11.647Z,100.72
2018-12-04T07:19:39.812Z,92.12
2018-12-04T07:22:07.728Z,96.20
2018-12-04T07:24:35.920Z,94.35
2018-12-04T07:27:03.876Z,92.82
2018-12-04T07:29:33.295Z,94.65
2018-12-04T07:32:01.216Z,100.35
2018-12-04T07:34:29.219Z,94.15
2018-12-04T07:36:57.305Z,100.65
2018-12-04T07:39:26.574Z,100.67
2018-12-04T07:41:55.495Z,101.53
2018-12-04T07:44:24.898Z,98.50
2018-12-04T07:46:53.539Z,100.62
2018-12-04T07:49:21.556Z,102.97
2018-12-04T07:51:50.360Z,103.27
2018-12-04T07:54:18.687Z,104.20
2018-12-04T07:56:52.736Z,101.80
2018-12-04T07:59:20.667Z,105.05
2018-12-04T08:01:48.543Z,98.67
2018-12-04T08:04:16.432Z,110.75
2018-12-04T08:06:44.332Z,107.15
2018-12-04T08:09:12.236Z,107.20
2018-12-04T08:11:40.983Z,113.55
2018-12-04T08:14:12.727Z,116.10
2018-12-04T08:16:41.583Z,115.05
2018-12-04T08:19:09.517Z,113.03
2018-12-04T08:21:37.780Z,112.80
2018-12-04T08:24:05.688Z,111.35
2018-12-04T08:26:35.264Z,121.05
2018-12-04T08:29:03.524Z,159.30
2018-12-04T08:31:33.547Z,160.93
2018-12-04T08:34:01.460Z,132.67
2018-12-04T08:36:30.780Z,126.18
2018-12-04T08:38:58.668Z,127.78
2018-12-04T08:41:27.016Z,127.67
2018-12-04T08:43:55.131Z,122.10
2018-12-04T08:46:23.111Z,126.40
2018-12-04T08:48:51.681Z,148.05
2018-12-04T08:51:19.945Z,148.60
2018-12-04T08:53:47.815Z,138.37
2018-12-04T08:56:16.729Z,132.57
2018-12-04T08:58:44.597Z,134.00
2018-12-04T09:01:13.544Z,132.40
2018-12-04T09:03:41.407Z,132.70
2018-12-04T09:06:12.145Z,136.05
2018-12-04T09:08:40.966Z,133.87
2018-12-04T09:11:09.956Z,129.30
2018-12-04T09:13:38.188Z,137.18
2018-12-04T09:16:06.081Z,135.70
2018-12-04T09:18:33.958Z,139.35
2018-12-04T09:21:01.984Z,132.93
2018-12-04T09:23:31.331Z,129.85
2018-12-04T09:25:59.518Z,129.18
2018-12-04T09:28:27.421Z,129.57
2018-12-04T09:30:55.478Z,133.70
2018-12-04T09:33:23.535Z,147.68
2018-12-04T09:35:51.440Z,140.28
2018-12-04T09:38:21.922Z,140.73
2018-12-04T09:40:49.958Z,142.00
2018-12-04T09:43:18.439Z,130.32
2018-12-04T09:45:46.931Z,131.30
2018-12-04T09:48:14.791Z,132.63
2018-12-04T09:50:42.715Z,129.63
2018-12-04T09:53:12.647Z,133.30
2018-12-04T09:55:40.596Z,132.87
2018-12-04T09:58:09.615Z,127.42
2018-12-04T10:00:37.500Z,125.90
2018-12-04T10:03:07.015Z,128.55
2018-12-04T10:05:35.626Z,132.75
2018-12-04T10:08:03.494Z,129.07
2018-12-04T10:10:31.350Z,135.43
2018-12-04T10:12:59.592Z,136.65
2018-12-04T10:15:27.476Z,133.00
2018-12-04T10:17:56.380Z,126.70
2018-12-04T10:20:25.300Z,131.15
2018-12-04T10:22:53.176Z,126.12
2018-12-04T10:25:21.093Z,128.60
2018-12-04T10:27:49.555Z,123.97
2018-12-04T10:30:20.970Z,121.47
2018-12-04T10:32:51.491Z,130.00
2018-12-04T10:35:19.903Z,129.75
2018-12-04T10:37:49.048Z,131.82
2018-12-04T10:40:17.181Z,139.25
2018-12-04T10:42:45.087Z,138.32
2018-12-04T10:45:14.136Z,135.80
2018-12-04T10:47:42.313Z,126.18
2018-12-04T10:50:10.483Z,126.70
2018-12-04T10:52:38.582Z,135.48
2018-12-04T10:55:06.640Z,130.95
2018-12-04T10:57:34.552Z,133.40
2018-12-04T11:00:03.845Z,130.10
2018-12-04T11:02:36.533Z,132.70
2018-12-04T11:05:05.791Z,136.25
2018-12-04T11:07:33.704Z,130.18
2018-12-04T11:10:02.458Z,136.40
2018-12-04T11:12:30.315Z,132.15
2018-12-04T11:14:58.202Z,145.00
2018-12-04T11:17:26.455Z,145.00
2018-12-04T11:19:54.358Z,148.50
2018-12-04T11:22:25.118Z,147.75
2018-12-04T11:24:53.611Z,148.78
2018-12-04T11:27:22.996Z,150.87
2018-12-04T11:29:51.904Z,147.10
2018-12-04T11:32:20.708Z,144.68
2018-12-04T11:34:51.868Z,145.82
2018-12-04T11:37:21.439Z,146.75
2018-12-04T11:39:50.514Z,148.07
2018-12-04T11:42:21.261Z,150.78
2018-12-04T11:44:49.179Z,152.97
2018-12-04T11:47:19.712Z,149.97
2018-12-04T11:49:49.891Z,151.37
2018-12-04T11:52:18.908Z,154.05
2018-12-04T11:54:47.603Z,158.52
2018-12-04T11:57:17.492Z,156.00
2018-12-04T11:59:47.164Z,156.15
2018-12-04T12:02:15.405Z,156.37
2018-12-04T12:04:43.423Z,154.63
2018-12-04T12:07:20.387Z,158.97
2018-12-04T12:09:45.747Z,169.68
2018-12-04T12:12:16.072Z,167.70
2018-12-04T12:14:43.922Z,170.20
2018-12-04T12:17:12.176Z,166.65
2018-12-04T12:19:41.533Z,158.18
2018-12-04T12:22:09.485Z,165.55
2018-12-04T12:24:39.290Z,165.82
2018-12-04T12:27:08.478Z,165.37
2018-12-04T12:29:36.816Z,157.03
2018-12-04T12:32:05.643Z,163.00
2018-12-04T12:34:33.574Z,161.85
2018-12-04T12:37:01.804Z,160.07
2018-12-04T12:39:29.682Z,163.35
2018-12-04T12:41:57.589Z,165.52
2018-12-04T12:44:25.460Z,167.10
2018-12-04T12:46:53.659Z,171.60
2018-12-04T12:49:24.952Z,166.47
2018-12-04T12:51:52.852Z,170.40
2018-12-04T12:57:16.048Z,173.82
2018-12-04T12:59:44.442Z,193.30
2018-12-04T13:02:12.843Z,189.80
2018-12-04T13:04:41.146Z,194.60
2018-12-04T13:07:12.097Z,199.72
2018-12-04T13:09:40.023Z,196.28
2018-12-04T13:12:07.963Z,205.75
2018-12-04T13:14:37.089Z,207.45
2018-12-04T13:17:05.154Z,207.15
2018-12-04T13:19:34.015Z,205.45
2018-12-04T13:22:03.256Z,201.60
2018-12-04T13:24:32.346Z,196.65
2018-12-04T13:27:00.237Z,198.90
2018-12-04T13:29:29.013Z,195.22
2018-12-04T13:31:57.939Z,194.67
2018-12-04T13:34:26.800Z,189.32
2018-12-04T13:36:55.300Z,187.53
2018-12-04T13:39:23.523Z,184.22
2018-12-04T13:41:51.432Z,188.03
2018-12-04T13:44:20.480Z,184.63
2018-12-04T13:46:50.174Z,175.82
2018-12-04T13:49:18.661Z,181.97
2018-12-04T13:51:47.871Z,192.18
2018-12-04T13:54:15.772Z,200.50
2018-12-04T13:56:44.040Z,204.13
2018-12-04T13:59:12.540Z,196.45
2018-12-04T14:01:40.460Z,191.65
2018-12-04T14:04:09.338Z,189.70
2018-12-04T14:06:39.998Z,195.72
2018-12-04T14:09:09.371Z,194.80
2018-12-04T14:11:37.260Z,195.47
2018-12-04T14:14:05.626Z,215.60
2018-12-04T14:16:50.531Z,215.70
2018-12-04T14:19:18.621Z,204.13
2018-12-04T14:21:46.502Z,191.85
2018-12-04T14:24:14.516Z,205.87
2018-12-04T14:26:42.462Z,202.47
2018-12-04T14:29:11.642Z,208.05
2018-12-04T14:31:39.546Z,203.25
2018-12-04T14:34:07.735Z,203.42
2018-12-04T14:36:37.091Z,208.85
2018-12-04T14:39:09.631Z,208.32
2018-12-04T14:41:38.462Z,206.53
2018-12-04T14:44:11.401Z,191.68
2018-12-04T14:46:39.454Z,197.45
2018-12-04T14:49:07.365Z,193.25
2018-12-04T14:51:35.300Z,198.25
2018-12-04T14:54:03.292Z,188.87
2018-12-04T14:56:31.301Z,200.40
2018-12-04T14:58:59.195Z,187.82
2018-12-04T15:01:28.624Z,197.95
2018-12-04T15:03:56.932Z,184.32
2018-12-04T15:06:24.848Z,190.85
2018-12-04T15:08:53.784Z,191.65
2018-12-04T15:11:22.382Z,182.85
2018-12-04T15:13:51.193Z,187.10
2018-12-04T15:16:19.175Z,208.05
2018-12-04T15:18:47.689Z,215.95
2018-12-04T15:21:15.641Z,219.65
2018-12-04T15:23:43.572Z,216.73
2018-12-04T15:26:12.961Z,223.93
2018-12-04T15:28:40.930Z,231.75
2018-12-04T15:31:09.107Z,215.68
2018-12-04T15:33:36.982Z,221.22
2018-12-04T15:36:05.192Z,221.93
2018-12-04T15:38:33.184Z,218.10
2018-12-04T15:41:01.105Z,217.30
2018-12-04T15:43:29.268Z,224.32
2018-12-04T15:45:57.322Z,221.53
2018-12-04T15:48:25.363Z,231.93
2018-12-04T15:50:59.815Z,223.57
2018-12-04T15:53:26.009Z,224.18
2018-12-04T15:55:54.009Z,209.72
2018-12-04T15:58:21.876Z,193.05
2018-12-04T16:00:50.052Z,198.35
2018-12-04T16:03:17.947Z,206.72
2018-12-04T16:05:46.363Z,193.47
2018-12-04T16:08:14.807Z,189.93
2018-12-04T16:10:43.131Z,182.30
2018-12-04T16:13:11.940Z,183.05
2018-12-04T16:15:40.484Z,201.70
2018-12-04T16:18:08.986Z,193.62
2018-12-04T16:20:37.120Z,197.72
2018-12-04T16:23:05.016Z,200.35
2018-12-04T16:25:32.923Z,193.02
2018-12-04T16:28:00.782Z,190.07
2018-12-04T16:30:28.672Z,191.32
2018-12-04T16:32:56.834Z,198.32
2018-12-04T16:35:24.708Z,194.55
2018-12-04T16:37:53.421Z,198.17
2018-12-04T16:40:23.280Z,187.10
2018-12-04T16:42:51.165Z,199.80
2018-12-04T16:45:19.050Z,190.18
2018-12-04T16:47:47.299Z,201.58
2018-12-04T16:50:15.183Z,191.40
2018-12-04T16:52:43.036Z,189.72
2018-12-04T16:55:11.283Z,189.45
2018-12-04T16:57:39.584Z,189.80
2018-12-04T17:00:09.014Z,188.87
2018-12-04T17:02:38.283Z,190.32
2018-12-04T17:05:06.322Z,190.20
2018-12-04T17:07:34.168Z,185.07
2018-12-04T17:10:02.061Z,187.72
2018-12-04T17:12:31.035Z,178.93
2018-12-04T17:14:58.876Z,185.22
2018-12-04T17:17:26.748Z,185.20
2018-12-04T17:19:55.682Z,190.68
2018-12-04T17:22:23.600Z,196.87
2018-12-04T17:24:53.588Z,177.65
2018-12-04T17:27:22.279Z,185.32
2018-12-04T17:29:50.442Z,175.22
2018-12-04T17:32:18.338Z,186.28
2018-12-04T17:34:46.484Z,181.52
2018-12-04T17:37:15.694Z,194.57
2018-12-04T17:39:43.547Z,198.53
2018-12-04T17:42:11.876Z,199.23
2018-12-04T17:44:40.410Z,206.63
2018-12-04T17:47:10.176Z,209.80
2018-12-04T17:49:38.288Z,215.50
2018-12-04T17:52:06.179Z,223.15
2018-12-04T17:54:34.095Z,219.93
2018-12-04T17:57:01.992Z,223.70
2018-12-04T17:59:31.908Z,229.78
2018-12-04T18:01:59.803Z,223.57
2018-12-04T18:04:33.733Z,227.07
2018-12-04T18:07:04.520Z,232.15
2018-12-04T18:09:33.508Z,236.68
2018-12-04T18:12:03.503Z,248.53
2018-12-04T18:14:33.410Z,251.67
2018-12-04T18:17:01.272Z,253.22
2018-12-04T18:19:30.427Z,262.45
2018-12-04T18:21:59.760Z,255.65
2018-12-04T18:24:32.604Z,250.87
2018-12-04T18:27:00.489Z,255.18
2018-12-04T18:29:28.327Z,260.88
2018-12-04T18:31:56.224Z,248.18
2018-12-04T18:34:24.500Z,252.53
2018-12-04T18:36:52.424Z,250.93
2018-12-04T18:39:20.393Z,256.90
2018-12-04T18:41:48.468Z,255.43
2018-12-04T18:44:16.510Z,257.40
2018-12-04T18:46:44.668Z,260.30
2018-12-04T18:49:12.579Z,270.80
2018-12-04T18:51:41.729Z,272.75
2018-12-04T18:54:09.847Z,275.48
2018-12-04T18:56:37.710Z,276.45
2018-12-04T18:59:05.599Z,275.43
2018-12-04T19:01:33.927Z,282.70
2018-12-04T19:04:01.832Z,282.48
2018-12-04T19:06:31.021Z,280.83
2018-12-04T19:08:58.995Z,303.52
2018-12-04T19:11:26.865Z,306.50
2018-12-04T19:13:54.762Z,316.17
2018-12-04T19:16:22.641Z,307.15
2018-12-04T19:18:50.506Z,300.45
2018-12-04T19:21:21.623Z,297.12
2018-12-04T19:23:52.942Z,312.02
2018-12-04T19:26:20.839Z,297.07
2018-12-04T19:28:52.279Z,291.77
2018-12-04T19:31:20.167Z,293.40
2018-12-04T19:33:48.554Z,294.82
2018-12-04T19:36:16.699Z,288.68
2018-12-04T19:38:45.604Z,280.87
2018-12-04T19:41:13.472Z,278.62
2018-12-04T19:43:43.054Z,286.70
2018-12-04T19:46:29.107Z,270.27
2018-12-04T19:48:57.311Z,267.65
2018-12-04T19:51:26.413Z,268.95
2018-12-04T19:53:54.248Z,281.50
2018-12-04T19:56:22.156Z,269.52
2018-12-04T19:58:50.034Z,273.85
2018-12-04T20:01:17.902Z,275.98
2018-12-04T20:03:45.777Z,272.42
2018-12-04T20:06:16.093Z,247.70
2018-12-04T20:11:38.826Z,233.17
2018-12-04T20:14:07.322Z,235.82
2018-12-04T20:16:35.209Z,234.65
2018-12-04T20:19:03.142Z,237.12
2018-12-04T20:21:32.805Z,250.90
2018-12-04T20:24:03.093Z,239.68
2018-12-04T20:26:31.028Z,252.65
2018-12-04T20:29:01.276Z,252.50
2018-12-04T20:31:30.364Z,252.90
2018-12-04T20:33:58.363Z,261.27
2018-12-04T20:36:49.170Z,272.98
2018-12-04T20:39:19.554Z,282.83
2018-12-04T20:48:48.744Z,252.85
2018-12-04T20:51:16.990Z,260.23
2018-12-04T20:53:45.845Z,272.98
2018-12-04T20:56:13.949Z,265.23
2018-12-04T20:58:42.229Z,255.92
2018-12-04T21:01:10.771Z,249.22
2018-12-04T21:03:38.683Z,247.35
2018-12-04T21:06:06.757Z,240.60
2018-12-04T21:08:34.959Z,240.60
2018-12-04T21:11:03.438Z,243.78
2018-12-04T21:13:32.768Z,243.40
2018-12-04T21:16:01.051Z,251.40
2018-12-04T21:18:29.292Z,246.77
2018-12-04T21:20:57.543Z,252.18
2018-12-04T21:23:25.821Z,237.90
2018-12-04T21:25:54.100Z,235.32
2018-12-04T21:28:23.056Z,242.45
2018-12-04T21:30:57.731Z,251.65
2018-12-04T21:33:32.177Z,234.83
2018-12-04T21:36:05.832Z,268.10
2018-12-04T21:39:41.831Z,243.70
2018-12-04T21:42:15.670Z,231.28
2018-12-04T21:44:53.708Z,227.82
2018-12-04T21:47:27.169Z,223.20
2018-12-04T21:49:55.060Z,233.80
2018-12-04T21:52:23.340Z,234.00
2018-12-04T21:54:51.999Z,236.55
2018-12-04T21:57:20.307Z,231.35
2018-12-04T21:59:48.611Z,244.05
2018-12-04T22:02:17.257Z,250.05
2018-12-04T22:04:46.382Z,243.07
2018-12-04T22:07:18.820Z,247.25
2018-12-04T22:09:47.108Z,234.83
2018-12-04T22:12:15.310Z,244.62
2018-12-04T22:14:44.451Z,228.98
2018-12-04T22:17:12.706Z,226.73
2018-12-04T22:19:40.978Z,234.05
2018-12-04T22:22:11.281Z,231.43
2018-12-04T22:24:39.574Z,231.57
2018-12-04T22:27:08.009Z,232.57
2018-12-04T22:29:36.075Z,236.70
2018-12-04T22:32:05.759Z,240.10
2018-12-04T22:34:36.388Z,235.90
2018-12-04T22:37:06.309Z,242.72
2018-12-04T22:39:35.010Z,242.87
2018-12-04T22:42:03.215Z,238.97
2018-12-04T22:44:31.548Z,230.75
2018-12-04T22:47:00.702Z,241.68
2018-12-04T22:49:29.670Z,230.32
2018-12-04T22:51:57.982Z,231.75
2018-12-04T22:54:26.219Z,222.42
2018-12-04T22:56:54.947Z,223.87
2018-12-04T22:59:23.996Z,230.60
2018-12-04T23:01:52.289Z,222.50
2018-12-04T23:04:22.244Z,232.55
2018-12-04T23:06:52.522Z,235.08
2018-12-04T23:09:20.836Z,238.00
2018-12-04T23:11:50.035Z,231.00
2018-12-04T23:14:18.156Z,221.77
2018-12-04T23:16:51.609Z,226.95
2018-12-04T23:19:24.614Z,231.02
2018-12-04T23:21:53.668Z,230.65
2018-12-04T23:24:26.423Z,225.95
2018-12-04T23:26:55.531Z,215.77
2018-12-04T23:29:23.805Z,215.50
2018-12-04T23:31:53.374Z,213.55
2018-12-04T23:34:22.483Z,210.55
2018-12-04T23:36:50.748Z,206.85
2018-12-04T23:39:20.988Z,202.75
2018-12-04T23:41:53.027Z,206.00
2018-12-04T23:44:24.468Z,201.47
2018-12-04T23:46:54.416Z,197.87
2018-12-04T23:49:23.680Z,200.22
2018-12-04T23:51:51.781Z,179.12
2018-12-04T23:54:23.711Z,192.15
2018-12-04T23:56:52.848Z,184.67
2018-12-04T23:59:23.990Z,183.42
